sensor_id;sensor_type;location;lat;lon;timestamp;temperature;humidity
47521;DHT22;32291;52.010;4.446;2024-03-17T00:00:06;6.60;99.90
47521;DHT22;32291;52.010;4.446;2024-03-17T00:01:14;6.60;99.90
47521;DHT22;32291;52.010;4.446;2024-03-17T00:02:17;6.70;99.90
47521;DHT22;32291;52.010;4.446;2024-03-17T00:03:21;6.70;99.90
47521;DHT22;32291;52.010;4.446;2024-03-17T00:04:23;6.70;99.90
47521;DHT22;32291;52.010;4.446;2024-03-17T00:05:30;6.70;99.90
47521;DHT22;32291;52.010;4.446;2024-03-17T00:06:34;6.80;99.90
47521;DHT22;32291;52.010;4.446;2024-03-17T00:07:41;6.80;99.90
47521;DHT22;32291;52.010;4.446;2024-03-17T00:08:47;6.80;99.90
47521;DHT22;32291;52.010;4.446;2024-03-17T00:09:49;6.80;99.90
47521;DHT22;32291;52.010;4.446;2024-03-17T00:10:53;6.90;99.90
47521;DHT22;32291;52.010;4.446;2024-03-17T00:12:00;7.00;99.90
47521;DHT22;32291;52.010;4.446;2024-03-17T00:13:06;6.90;99.90
47521;DHT22;32291;52.010;4.446;2024-03-17T00:14:12;7.00;99.90
47521;DHT22;32291;52.010;4.446;2024-03-17T00:15:15;7.00;99.90
47521;DHT22;32291;52.010;4.446;2024-03-17T00:16:17;7.00;99.90
47521;DHT22;32291;52.010;4.446;2024-03-17T00:17:23;7.00;99.90
47521;DHT22;32291;52.010;4.446;2024-03-17T00:18:28;7.00;99.90
47521;DHT22;32291;52.010;4.446;2024-03-17T00:19:35;7.10;99.90
47521;DHT22;32291;52.010;4.446;2024-03-17T00:20:38;7.10;99.90
47521;DHT22;32291;52.010;4.446;2024-03-17T00:21:42;7.10;99.90
47521;DHT22;32291;52.010;4.446;2024-03-17T00:22:52;7.10;99.90
47521;DHT22;32291;52.010;4.446;2024-03-17T00:24:00;7.10;99.90
47521;DHT22;32291;52.010;4.446;2024-03-17T00:25:05;7.00;99.90
47521;DHT22;32291;52.010;4.446;2024-03-17T00:26:16;7.00;99.90
47521;DHT22;32291;52.010;4.446;2024-03-17T00:27:21;7.00;99.90
47521;DHT22;32291;52.010;4.446;2024-03-17T00:28:23;7.00;99.90
47521;DHT22;32291;52.010;4.446;2024-03-17T00:29:31;7.00;99.90
47521;DHT22;32291;52.010;4.446;2024-03-17T00:30:34;7.00;99.90
47521;DHT22;32291;52.010;4.446;2024-03-17T00:31:42;7.00;99.90
47521;DHT22;32291;52.010;4.446;2024-03-17T00:32:45;7.00;99.90
47521;DHT22;32291;52.010;4.446;2024-03-17T00:33:47;7.00;99.90
47521;DHT22;32291;52.010;4.446;2024-03-17T00:34:50;7.00;99.90
47521;DHT22;32291;52.010;4.446;2024-03-17T00:35:56;6.80;99.90
47521;DHT22;32291;52.010;4.446;2024-03-17T00:36:58;7.00;99.90
47521;DHT22;32291;52.010;4.446;2024-03-17T00:38:05;6.90;99.90
47521;DHT22;32291;52.010;4.446;2024-03-17T00:39:15;7.00;99.90
47521;DHT22;32291;52.010;4.446;2024-03-17T00:40:23;7.00;99.90
47521;DHT22;32291;52.010;4.446;2024-03-17T00:41:26;7.00;99.90
47521;DHT22;32291;52.010;4.446;2024-03-17T00:42:34;7.00;99.90
47521;DHT22;32291;52.010;4.446;2024-03-17T00:43:40;7.00;99.90
47521;DHT22;32291;52.010;4.446;2024-03-17T00:44:43;7.00;99.90
47521;DHT22;32291;52.010;4.446;2024-03-17T00:45:53;7.00;99.90
47521;DHT22;32291;52.010;4.446;2024-03-17T00:47:02;7.00;99.90
47521;DHT22;32291;52.010;4.446;2024-03-17T00:48:09;7.10;99.90
47521;DHT22;32291;52.010;4.446;2024-03-17T00:49:12;7.10;99.90
47521;DHT22;32291;52.010;4.446;2024-03-17T00:50:19;7.10;99.90
47521;DHT22;32291;52.010;4.446;2024-03-17T00:51:27;7.10;99.90
47521;DHT22;32291;52.010;4.446;2024-03-17T00:52:30;7.20;99.90
47521;DHT22;32291;52.010;4.446;2024-03-17T00:53:33;7.20;99.90
47521;DHT22;32291;52.010;4.446;2024-03-17T00:54:36;7.20;99.90
47521;DHT22;32291;52.010;4.446;2024-03-17T00:55:39;7.30;99.90
47521;DHT22;32291;52.010;4.446;2024-03-17T00:56:42;7.30;99.90
47521;DHT22;32291;52.010;4.446;2024-03-17T00:57:47;7.30;99.90
47521;DHT22;32291;52.010;4.446;2024-03-17T00:58:50;7.30;99.90
47521;DHT22;32291;52.010;4.446;2024-03-17T00:59:54;7.30;99.90
47521;DHT22;32291;52.010;4.446;2024-03-17T01:01:04;7.40;99.90
47521;DHT22;32291;52.010;4.446;2024-03-17T01:02:15;7.40;99.90
47521;DHT22;32291;52.010;4.446;2024-03-17T01:03:24;7.40;99.90
47521;DHT22;32291;52.010;4.446;2024-03-17T01:04:31;7.40;99.90
47521;DHT22;32291;52.010;4.446;2024-03-17T01:05:38;7.40;99.90
47521;DHT22;32291;52.010;4.446;2024-03-17T01:06:58;7.40;99.90
47521;DHT22;32291;52.010;4.446;2024-03-17T01:08:09;7.40;99.90
47521;DHT22;32291;52.010;4.446;2024-03-17T01:09:19;7.40;99.90
47521;DHT22;32291;52.010;4.446;2024-03-17T01:10:24;7.50;99.90
47521;DHT22;32291;52.010;4.446;2024-03-17T01:11:26;7.50;99.90
47521;DHT22;32291;52.010;4.446;2024-03-17T01:12:35;7.50;99.90
47521;DHT22;32291;52.010;4.446;2024-03-17T01:13:40;7.50;99.90
47521;DHT22;32291;52.010;4.446;2024-03-17T01:14:48;7.40;99.90
47521;DHT22;32291;52.010;4.446;2024-03-17T01:15:52;7.40;99.90
47521;DHT22;32291;52.010;4.446;2024-03-17T01:16:55;7.40;99.90
47521;DHT22;32291;52.010;4.446;2024-03-17T01:18:04;7.40;99.90
47521;DHT22;32291;52.010;4.446;2024-03-17T01:19:16;7.40;99.90
47521;DHT22;32291;52.010;4.446;2024-03-17T01:20:19;7.30;99.90
47521;DHT22;32291;52.010;4.446;2024-03-17T01:21:39;7.30;99.90
47521;DHT22;32291;52.010;4.446;2024-03-17T01:22:41;7.30;99.90
47521;DHT22;32291;52.010;4.446;2024-03-17T01:23:47;7.20;99.90
47521;DHT22;32291;52.010;4.446;2024-03-17T01:24:50;7.10;99.90
47521;DHT22;32291;52.010;4.446;2024-03-17T01:25:58;7.10;99.90
47521;DHT22;32291;52.010;4.446;2024-03-17T01:27:01;7.00;99.90
47521;DHT22;32291;52.010;4.446;2024-03-17T01:28:04;7.00;99.90
47521;DHT22;32291;52.010;4.446;2024-03-17T01:29:11;6.90;99.90
47521;DHT22;32291;52.010;4.446;2024-03-17T01:30:14;6.90;99.90
47521;DHT22;32291;52.010;4.446;2024-03-17T01:31:17;6.90;99.90
47521;DHT22;32291;52.010;4.446;2024-03-17T01:32:25;6.90;99.90
47521;DHT22;32291;52.010;4.446;2024-03-17T01:33:27;6.80;99.90
47521;DHT22;32291;52.010;4.446;2024-03-17T01:34:31;6.80;99.90
47521;DHT22;32291;52.010;4.446;2024-03-17T01:35:41;6.70;99.90
47521;DHT22;32291;52.010;4.446;2024-03-17T01:36:44;6.70;99.90
47521;DHT22;32291;52.010;4.446;2024-03-17T01:37:51;6.70;99.90
47521;DHT22;32291;52.010;4.446;2024-03-17T01:38:59;6.60;99.90
47521;DHT22;32291;52.010;4.446;2024-03-17T01:40:01;6.60;99.90
47521;DHT22;32291;52.010;4.446;2024-03-17T01:41:06;6.60;99.90
47521;DHT22;32291;52.010;4.446;2024-03-17T01:42:13;6.50;99.90
47521;DHT22;32291;52.010;4.446;2024-03-17T01:43:16;6.50;99.90
47521;DHT22;32291;52.010;4.446;2024-03-17T01:44:29;6.50;99.90
47521;DHT22;32291;52.010;4.446;2024-03-17T01:45:33;6.50;99.90
47521;DHT22;32291;52.010;4.446;2024-03-17T01:46:39;6.40;99.90
47521;DHT22;32291;52.010;4.446;2024-03-17T01:47:42;6.40;99.90
47521;DHT22;32291;52.010;4.446;2024-03-17T01:48:45;6.40;99.90
47521;DHT22;32291;52.010;4.446;2024-03-17T01:50:02;6.30;99.90
47521;DHT22;32291;52.010;4.446;2024-03-17T01:51:10;6.30;99.90
47521;DHT22;32291;52.010;4.446;2024-03-17T01:52:16;6.30;99.90
47521;DHT22;32291;52.010;4.446;2024-03-17T01:53:25;6.30;99.90
47521;DHT22;32291;52.010;4.446;2024-03-17T01:54:29;6.30;99.90
47521;DHT22;32291;52.010;4.446;2024-03-17T01:55:43;6.30;99.90
47521;DHT22;32291;52.010;4.446;2024-03-17T01:56:47;6.30;99.90
47521;DHT22;32291;52.010;4.446;2024-03-17T01:57:51;6.30;99.90
47521;DHT22;32291;52.010;4.446;2024-03-17T01:59:01;6.40;99.90
47521;DHT22;32291;52.010;4.446;2024-03-17T02:00:04;6.30;99.90
47521;DHT22;32291;52.010;4.446;2024-03-17T02:01:14;6.30;99.90
47521;DHT22;32291;52.010;4.446;2024-03-17T02:02:22;6.30;99.90
47521;DHT22;32291;52.010;4.446;2024-03-17T02:03:29;6.30;99.90
47521;DHT22;32291;52.010;4.446;2024-03-17T02:04:37;6.30;99.90
47521;DHT22;32291;52.010;4.446;2024-03-17T02:05:42;6.20;99.90
47521;DHT22;32291;52.010;4.446;2024-03-17T02:06:53;6.20;99.90
47521;DHT22;32291;52.010;4.446;2024-03-17T02:08:00;6.30;99.90
47521;DHT22;32291;52.010;4.446;2024-03-17T02:09:03;6.30;99.90
47521;DHT22;32291;52.010;4.446;2024-03-17T02:10:10;6.30;99.90
47521;DHT22;32291;52.010;4.446;2024-03-17T02:11:25;6.40;99.90
47521;DHT22;32291;52.010;4.446;2024-03-17T02:12:33;6.40;99.90
47521;DHT22;32291;52.010;4.446;2024-03-17T02:13:41;6.40;99.90
47521;DHT22;32291;52.010;4.446;2024-03-17T02:14:43;6.40;99.90
47521;DHT22;32291;52.010;4.446;2024-03-17T02:15:51;6.40;99.90
47521;DHT22;32291;52.010;4.446;2024-03-17T02:16:54;6.30;99.90
47521;DHT22;32291;52.010;4.446;2024-03-17T02:18:01;6.30;99.90
47521;DHT22;32291;52.010;4.446;2024-03-17T02:19:08;6.30;99.90
47521;DHT22;32291;52.010;4.446;2024-03-17T02:20:11;6.40;99.90
47521;DHT22;32291;52.010;4.446;2024-03-17T02:21:15;6.40;99.90
47521;DHT22;32291;52.010;4.446;2024-03-17T02:22:18;6.30;99.90
47521;DHT22;32291;52.010;4.446;2024-03-17T02:23:21;6.40;99.90
47521;DHT22;32291;52.010;4.446;2024-03-17T02:24:24;6.40;99.90
47521;DHT22;32291;52.010;4.446;2024-03-17T02:25:31;6.40;99.90
47521;DHT22;32291;52.010;4.446;2024-03-17T02:26:33;6.40;99.90
47521;DHT22;32291;52.010;4.446;2024-03-17T02:27:40;6.50;99.90
47521;DHT22;32291;52.010;4.446;2024-03-17T02:28:44;6.40;99.90
47521;DHT22;32291;52.010;4.446;2024-03-17T02:29:48;6.50;99.90
47521;DHT22;32291;52.010;4.446;2024-03-17T02:30:51;6.50;99.90
47521;DHT22;32291;52.010;4.446;2024-03-17T02:31:53;6.50;99.90
47521;DHT22;32291;52.010;4.446;2024-03-17T02:32:56;6.50;99.90
47521;DHT22;32291;52.010;4.446;2024-03-17T02:34:04;6.60;99.90
47521;DHT22;32291;52.010;4.446;2024-03-17T02:35:10;6.60;99.90
47521;DHT22;32291;52.010;4.446;2024-03-17T02:36:13;6.60;99.90
47521;DHT22;32291;52.010;4.446;2024-03-17T02:37:17;6.70;99.90
47521;DHT22;32291;52.010;4.446;2024-03-17T02:38:25;6.60;99.90
47521;DHT22;32291;52.010;4.446;2024-03-17T02:39:46;6.60;99.90
47521;DHT22;32291;52.010;4.446;2024-03-17T02:40:53;6.60;99.90
47521;DHT22;32291;52.010;4.446;2024-03-17T02:42:04;6.60;99.90
47521;DHT22;32291;52.010;4.446;2024-03-17T02:43:15;6.70;99.90
47521;DHT22;32291;52.010;4.446;2024-03-17T02:44:22;6.70;99.90
47521;DHT22;32291;52.010;4.446;2024-03-17T02:45:29;6.80;99.90
47521;DHT22;32291;52.010;4.446;2024-03-17T02:46:32;6.80;99.90
47521;DHT22;32291;52.010;4.446;2024-03-17T02:47:40;6.80;99.90
47521;DHT22;32291;52.010;4.446;2024-03-17T02:48:43;6.90;99.90
47521;DHT22;32291;52.010;4.446;2024-03-17T02:49:48;6.90;99.90
47521;DHT22;32291;52.010;4.446;2024-03-17T02:50:52;6.90;99.90
47521;DHT22;32291;52.010;4.446;2024-03-17T02:51:54;6.90;99.90
47521;DHT22;32291;52.010;4.446;2024-03-17T02:53:01;7.00;99.90
47521;DHT22;32291;52.010;4.446;2024-03-17T02:54:10;7.00;99.90
47521;DHT22;32291;52.010;4.446;2024-03-17T02:55:12;7.00;99.90
47521;DHT22;32291;52.010;4.446;2024-03-17T02:56:15;7.00;99.90
47521;DHT22;32291;52.010;4.446;2024-03-17T02:57:24;7.00;99.90
47521;DHT22;32291;52.010;4.446;2024-03-17T02:58:31;7.00;99.90
47521;DHT22;32291;52.010;4.446;2024-03-17T02:59:41;7.00;99.90
47521;DHT22;32291;52.010;4.446;2024-03-17T03:00:45;7.00;99.90
47521;DHT22;32291;52.010;4.446;2024-03-17T03:01:47;7.00;99.90
47521;DHT22;32291;52.010;4.446;2024-03-17T03:02:49;7.10;99.90
47521;DHT22;32291;52.010;4.446;2024-03-17T03:03:56;7.10;99.90
47521;DHT22;32291;52.010;4.446;2024-03-17T03:04:59;7.10;99.90
47521;DHT22;32291;52.010;4.446;2024-03-17T03:06:06;7.10;99.90
47521;DHT22;32291;52.010;4.446;2024-03-17T03:07:18;7.20;99.90
47521;DHT22;32291;52.010;4.446;2024-03-17T03:08:21;7.20;99.90
47521;DHT22;32291;52.010;4.446;2024-03-17T03:09:23;7.20;99.90
47521;DHT22;32291;52.010;4.446;2024-03-17T03:10:34;7.30;99.90
47521;DHT22;32291;52.010;4.446;2024-03-17T03:11:44;7.30;99.90
47521;DHT22;32291;52.010;4.446;2024-03-17T03:12:52;7.30;99.90
47521;DHT22;32291;52.010;4.446;2024-03-17T03:13:59;7.30;99.90
47521;DHT22;32291;52.010;4.446;2024-03-17T03:15:02;7.40;99.90
47521;DHT22;32291;52.010;4.446;2024-03-17T03:16:13;7.40;99.90
47521;DHT22;32291;52.010;4.446;2024-03-17T03:17:16;7.50;99.90
47521;DHT22;32291;52.010;4.446;2024-03-17T03:18:18;7.50;99.90
47521;DHT22;32291;52.010;4.446;2024-03-17T03:19:27;7.50;99.90
47521;DHT22;32291;52.010;4.446;2024-03-17T03:20:30;7.50;99.90
47521;DHT22;32291;52.010;4.446;2024-03-17T03:21:33;7.60;99.90
47521;DHT22;32291;52.010;4.446;2024-03-17T03:22:35;7.60;99.90
47521;DHT22;32291;52.010;4.446;2024-03-17T03:23:38;7.60;99.90
47521;DHT22;32291;52.010;4.446;2024-03-17T03:24:42;7.50;99.90
47521;DHT22;32291;52.010;4.446;2024-03-17T03:25:44;7.50;99.90
47521;DHT22;32291;52.010;4.446;2024-03-17T03:26:48;7.50;99.90
47521;DHT22;32291;52.010;4.446;2024-03-17T03:27:54;7.50;99.90
47521;DHT22;32291;52.010;4.446;2024-03-17T03:28:59;7.50;99.90
47521;DHT22;32291;52.010;4.446;2024-03-17T03:30:02;7.50;99.90
47521;DHT22;32291;52.010;4.446;2024-03-17T03:31:13;7.50;99.90
47521;DHT22;32291;52.010;4.446;2024-03-17T03:32:15;7.60;99.90
47521;DHT22;32291;52.010;4.446;2024-03-17T03:33:20;7.60;99.90
47521;DHT22;32291;52.010;4.446;2024-03-17T03:34:26;7.60;99.90
47521;DHT22;32291;52.010;4.446;2024-03-17T03:35:33;7.60;99.90
47521;DHT22;32291;52.010;4.446;2024-03-17T03:36:35;7.60;99.90
47521;DHT22;32291;52.010;4.446;2024-03-17T03:37:49;7.60;99.90
47521;DHT22;32291;52.010;4.446;2024-03-17T03:38:56;7.50;99.90
47521;DHT22;32291;52.010;4.446;2024-03-17T03:40:00;7.60;99.90
47521;DHT22;32291;52.010;4.446;2024-03-17T03:41:10;7.60;99.90
47521;DHT22;32291;52.010;4.446;2024-03-17T03:42:14;7.70;99.90
47521;DHT22;32291;52.010;4.446;2024-03-17T03:43:16;7.60;99.90
47521;DHT22;32291;52.010;4.446;2024-03-17T03:44:19;7.60;99.90
47521;DHT22;32291;52.010;4.446;2024-03-17T03:45:22;7.60;99.90
47521;DHT22;32291;52.010;4.446;2024-03-17T03:46:29;7.60;99.90
47521;DHT22;32291;52.010;4.446;2024-03-17T03:47:37;7.60;99.90
47521;DHT22;32291;52.010;4.446;2024-03-17T03:48:42;7.60;99.90
47521;DHT22;32291;52.010;4.446;2024-03-17T03:49:45;7.60;99.90
47521;DHT22;32291;52.010;4.446;2024-03-17T03:50:52;7.60;99.90
47521;DHT22;32291;52.010;4.446;2024-03-17T03:52:00;7.60;99.90
47521;DHT22;32291;52.010;4.446;2024-03-17T03:53:03;7.70;99.90
47521;DHT22;32291;52.010;4.446;2024-03-17T03:54:05;7.70;99.90
47521;DHT22;32291;52.010;4.446;2024-03-17T03:55:16;7.60;99.90
47521;DHT22;32291;52.010;4.446;2024-03-17T03:56:19;7.70;99.90
47521;DHT22;32291;52.010;4.446;2024-03-17T03:57:22;7.60;99.90
47521;DHT22;32291;52.010;4.446;2024-03-17T03:58:24;7.70;99.90
47521;DHT22;32291;52.010;4.446;2024-03-17T03:59:27;7.60;99.90
47521;DHT22;32291;52.010;4.446;2024-03-17T04:00:34;7.60;99.90
47521;DHT22;32291;52.010;4.446;2024-03-17T04:01:42;7.60;99.90
47521;DHT22;32291;52.010;4.446;2024-03-17T04:02:48;7.60;99.90
47521;DHT22;32291;52.010;4.446;2024-03-17T04:03:51;7.60;99.90
47521;DHT22;32291;52.010;4.446;2024-03-17T04:04:59;7.60;99.90
47521;DHT22;32291;52.010;4.446;2024-03-17T04:06:10;7.60;99.90
47521;DHT22;32291;52.010;4.446;2024-03-17T04:07:13;7.60;99.90
47521;DHT22;32291;52.010;4.446;2024-03-17T04:08:16;7.60;99.90
47521;DHT22;32291;52.010;4.446;2024-03-17T04:09:18;7.60;99.90
47521;DHT22;32291;52.010;4.446;2024-03-17T04:10:26;7.50;99.90
47521;DHT22;32291;52.010;4.446;2024-03-17T04:11:37;7.50;99.90
47521;DHT22;32291;52.010;4.446;2024-03-17T04:12:45;7.40;99.90
47521;DHT22;32291;52.010;4.446;2024-03-17T04:13:47;7.40;99.90
47521;DHT22;32291;52.010;4.446;2024-03-17T04:14:54;7.40;99.90
47521;DHT22;32291;52.010;4.446;2024-03-17T04:16:01;7.50;99.90
47521;DHT22;32291;52.010;4.446;2024-03-17T04:17:10;7.40;99.90
47521;DHT22;32291;52.010;4.446;2024-03-17T04:18:13;7.40;99.90
47521;DHT22;32291;52.010;4.446;2024-03-17T04:19:17;7.40;99.90
47521;DHT22;32291;52.010;4.446;2024-03-17T04:20:24;7.40;99.90
47521;DHT22;32291;52.010;4.446;2024-03-17T04:21:27;7.40;99.90
47521;DHT22;32291;52.010;4.446;2024-03-17T04:22:32;7.40;99.90
47521;DHT22;32291;52.010;4.446;2024-03-17T04:23:36;7.40;99.90
47521;DHT22;32291;52.010;4.446;2024-03-17T04:24:40;7.50;99.90
47521;DHT22;32291;52.010;4.446;2024-03-17T04:25:45;7.50;99.90
47521;DHT22;32291;52.010;4.446;2024-03-17T04:26:48;7.50;99.90
47521;DHT22;32291;52.010;4.446;2024-03-17T04:27:54;7.50;99.90
47521;DHT22;32291;52.010;4.446;2024-03-17T04:29:02;7.40;99.90
47521;DHT22;32291;52.010;4.446;2024-03-17T04:30:06;7.50;99.90
47521;DHT22;32291;52.010;4.446;2024-03-17T04:31:11;7.50;99.90
47521;DHT22;32291;52.010;4.446;2024-03-17T04:32:15;7.50;99.90
47521;DHT22;32291;52.010;4.446;2024-03-17T04:33:24;7.50;99.90
47521;DHT22;32291;52.010;4.446;2024-03-17T04:34:27;7.50;99.90
47521;DHT22;32291;52.010;4.446;2024-03-17T04:35:39;7.40;99.90
47521;DHT22;32291;52.010;4.446;2024-03-17T04:36:43;7.50;99.90
47521;DHT22;32291;52.010;4.446;2024-03-17T04:37:46;7.50;99.90
47521;DHT22;32291;52.010;4.446;2024-03-17T04:38:53;7.50;99.90
47521;DHT22;32291;52.010;4.446;2024-03-17T04:39:57;7.60;99.90
47521;DHT22;32291;52.010;4.446;2024-03-17T04:41:04;7.60;99.90
47521;DHT22;32291;52.010;4.446;2024-03-17T04:42:15;7.50;99.90
47521;DHT22;32291;52.010;4.446;2024-03-17T04:43:24;7.50;99.90
47521;DHT22;32291;52.010;4.446;2024-03-17T04:44:27;7.60;99.90
47521;DHT22;32291;52.010;4.446;2024-03-17T04:45:35;7.50;99.90
47521;DHT22;32291;52.010;4.446;2024-03-17T04:46:39;7.50;99.90
47521;DHT22;32291;52.010;4.446;2024-03-17T04:47:47;7.50;99.90
47521;DHT22;32291;52.010;4.446;2024-03-17T04:48:57;7.50;99.90
47521;DHT22;32291;52.010;4.446;2024-03-17T04:50:00;7.50;99.90
47521;DHT22;32291;52.010;4.446;2024-03-17T04:51:03;7.50;99.90
47521;DHT22;32291;52.010;4.446;2024-03-17T04:52:10;7.40;99.90
47521;DHT22;32291;52.010;4.446;2024-03-17T04:53:18;7.50;99.90
47521;DHT22;32291;52.010;4.446;2024-03-17T04:54:21;7.50;99.90
47521;DHT22;32291;52.010;4.446;2024-03-17T04:55:24;7.40;99.90
47521;DHT22;32291;52.010;4.446;2024-03-17T04:56:32;7.50;99.90
47521;DHT22;32291;52.010;4.446;2024-03-17T04:57:35;7.50;99.90
47521;DHT22;32291;52.010;4.446;2024-03-17T04:58:40;7.50;99.90
47521;DHT22;32291;52.010;4.446;2024-03-17T04:59:43;7.50;99.90
47521;DHT22;32291;52.010;4.446;2024-03-17T05:00:45;7.50;99.90
47521;DHT22;32291;52.010;4.446;2024-03-17T05:01:53;7.50;99.90
47521;DHT22;32291;52.010;4.446;2024-03-17T05:02:56;7.50;99.90
47521;DHT22;32291;52.010;4.446;2024-03-17T05:04:03;7.50;99.90
47521;DHT22;32291;52.010;4.446;2024-03-17T05:05:06;7.50;99.90
47521;DHT22;32291;52.010;4.446;2024-03-17T05:06:14;7.50;99.90
47521;DHT22;32291;52.010;4.446;2024-03-17T05:07:17;7.50;99.90
47521;DHT22;32291;52.010;4.446;2024-03-17T05:08:19;7.50;99.90
47521;DHT22;32291;52.010;4.446;2024-03-17T05:09:26;7.50;99.90
47521;DHT22;32291;52.010;4.446;2024-03-17T05:10:30;7.50;99.90
47521;DHT22;32291;52.010;4.446;2024-03-17T05:11:40;7.40;99.90
47521;DHT22;32291;52.010;4.446;2024-03-17T05:12:44;7.50;99.90
47521;DHT22;32291;52.010;4.446;2024-03-17T05:13:47;7.30;99.90
47521;DHT22;32291;52.010;4.446;2024-03-17T05:15:05;7.40;99.90
47521;DHT22;32291;52.010;4.446;2024-03-17T05:16:10;7.30;99.90
47521;DHT22;32291;52.010;4.446;2024-03-17T05:17:16;7.30;99.90
47521;DHT22;32291;52.010;4.446;2024-03-17T05:18:19;7.30;99.90
47521;DHT22;32291;52.010;4.446;2024-03-17T05:19:24;7.30;99.90
47521;DHT22;32291;52.010;4.446;2024-03-17T05:20:27;7.30;99.90
47521;DHT22;32291;52.010;4.446;2024-03-17T05:21:30;7.30;99.90
47521;DHT22;32291;52.010;4.446;2024-03-17T05:22:32;7.30;99.90
47521;DHT22;32291;52.010;4.446;2024-03-17T05:23:36;7.30;99.90
47521;DHT22;32291;52.010;4.446;2024-03-17T05:24:42;7.40;99.90
47521;DHT22;32291;52.010;4.446;2024-03-17T05:25:51;7.40;99.90
47521;DHT22;32291;52.010;4.446;2024-03-17T05:26:59;7.40;99.90
47521;DHT22;32291;52.010;4.446;2024-03-17T05:28:01;7.30;99.90
47521;DHT22;32291;52.010;4.446;2024-03-17T05:29:09;7.40;99.90
47521;DHT22;32291;52.010;4.446;2024-03-17T05:30:12;7.50;99.90
47521;DHT22;32291;52.010;4.446;2024-03-17T05:31:19;7.50;99.90
47521;DHT22;32291;52.010;4.446;2024-03-17T05:32:28;7.50;99.90
47521;DHT22;32291;52.010;4.446;2024-03-17T05:33:31;7.50;99.90
47521;DHT22;32291;52.010;4.446;2024-03-17T05:34:38;7.50;99.90
47521;DHT22;32291;52.010;4.446;2024-03-17T05:35:52;7.50;99.90
47521;DHT22;32291;52.010;4.446;2024-03-17T05:37:04;7.50;99.90
47521;DHT22;32291;52.010;4.446;2024-03-17T05:38:11;7.50;99.90
47521;DHT22;32291;52.010;4.446;2024-03-17T05:39:19;7.50;99.90
47521;DHT22;32291;52.010;4.446;2024-03-17T05:40:29;7.50;99.90
47521;DHT22;32291;52.010;4.446;2024-03-17T05:41:35;7.60;99.90
47521;DHT22;32291;52.010;4.446;2024-03-17T05:42:44;7.50;99.90
47521;DHT22;32291;52.010;4.446;2024-03-17T05:43:48;7.40;99.90
47521;DHT22;32291;52.010;4.446;2024-03-17T05:44:50;7.60;99.90
47521;DHT22;32291;52.010;4.446;2024-03-17T05:45:57;7.50;99.90
47521;DHT22;32291;52.010;4.446;2024-03-17T05:47:00;7.50;99.90
47521;DHT22;32291;52.010;4.446;2024-03-17T05:48:03;7.60;99.90
47521;DHT22;32291;52.010;4.446;2024-03-17T05:49:09;7.60;99.90
47521;DHT22;32291;52.010;4.446;2024-03-17T05:50:15;7.60;99.90
47521;DHT22;32291;52.010;4.446;2024-03-17T05:51:18;7.60;99.90
47521;DHT22;32291;52.010;4.446;2024-03-17T05:52:28;7.70;99.90
47521;DHT22;32291;52.010;4.446;2024-03-17T05:53:31;7.70;99.90
47521;DHT22;32291;52.010;4.446;2024-03-17T05:54:40;7.70;99.90
47521;DHT22;32291;52.010;4.446;2024-03-17T05:55:53;7.70;99.90
47521;DHT22;32291;52.010;4.446;2024-03-17T05:56:58;7.70;99.90
47521;DHT22;32291;52.010;4.446;2024-03-17T05:58:01;7.80;99.90
47521;DHT22;32291;52.010;4.446;2024-03-17T05:59:04;7.80;99.90
47521;DHT22;32291;52.010;4.446;2024-03-17T06:00:15;7.80;99.90
47521;DHT22;32291;52.010;4.446;2024-03-17T06:01:18;7.80;99.90
47521;DHT22;32291;52.010;4.446;2024-03-17T06:02:24;7.80;99.90
47521;DHT22;32291;52.010;4.446;2024-03-17T06:03:31;7.80;99.90
47521;DHT22;32291;52.010;4.446;2024-03-17T06:04:33;7.90;99.90
47521;DHT22;32291;52.010;4.446;2024-03-17T06:05:37;7.90;99.90
47521;DHT22;32291;52.010;4.446;2024-03-17T06:06:43;7.90;99.90
47521;DHT22;32291;52.010;4.446;2024-03-17T06:07:50;7.90;99.90
47521;DHT22;32291;52.010;4.446;2024-03-17T06:08:52;7.90;99.90
47521;DHT22;32291;52.010;4.446;2024-03-17T06:09:58;8.00;99.90
47521;DHT22;32291;52.010;4.446;2024-03-17T06:11:05;7.90;99.90
47521;DHT22;32291;52.010;4.446;2024-03-17T06:12:08;8.00;99.90
47521;DHT22;32291;52.010;4.446;2024-03-17T06:13:16;7.90;99.90
47521;DHT22;32291;52.010;4.446;2024-03-17T06:14:19;7.90;99.90
47521;DHT22;32291;52.010;4.446;2024-03-17T06:15:21;7.90;99.90
47521;DHT22;32291;52.010;4.446;2024-03-17T06:16:25;7.90;99.90
47521;DHT22;32291;52.010;4.446;2024-03-17T06:17:28;7.90;99.90
47521;DHT22;32291;52.010;4.446;2024-03-17T06:18:30;7.90;99.90
47521;DHT22;32291;52.010;4.446;2024-03-17T06:19:33;7.90;99.90
47521;DHT22;32291;52.010;4.446;2024-03-17T06:20:42;7.90;99.90
47521;DHT22;32291;52.010;4.446;2024-03-17T06:21:54;8.00;99.90
47521;DHT22;32291;52.010;4.446;2024-03-17T06:22:57;8.00;99.90
47521;DHT22;32291;52.010;4.446;2024-03-17T06:24:00;8.00;99.90
47521;DHT22;32291;52.010;4.446;2024-03-17T06:25:09;8.10;99.90
47521;DHT22;32291;52.010;4.446;2024-03-17T06:26:16;8.10;99.90
47521;DHT22;32291;52.010;4.446;2024-03-17T06:27:23;8.10;99.90
47521;DHT22;32291;52.010;4.446;2024-03-17T06:28:30;8.10;99.90
47521;DHT22;32291;52.010;4.446;2024-03-17T06:29:33;8.10;99.90
47521;DHT22;32291;52.010;4.446;2024-03-17T06:31:05;8.10;99.90
47521;DHT22;32291;52.010;4.446;2024-03-17T06:32:13;8.20;99.90
47521;DHT22;32291;52.010;4.446;2024-03-17T06:33:20;8.20;99.90
47521;DHT22;32291;52.010;4.446;2024-03-17T06:34:23;8.20;99.90
47521;DHT22;32291;52.010;4.446;2024-03-17T06:35:25;8.30;99.90
47521;DHT22;32291;52.010;4.446;2024-03-17T06:36:28;8.30;99.90
47521;DHT22;32291;52.010;4.446;2024-03-17T06:37:31;8.30;99.90
47521;DHT22;32291;52.010;4.446;2024-03-17T06:38:34;8.40;99.90
47521;DHT22;32291;52.010;4.446;2024-03-17T06:39:41;8.30;99.90
47521;DHT22;32291;52.010;4.446;2024-03-17T06:40:49;8.40;99.90
47521;DHT22;32291;52.010;4.446;2024-03-17T06:41:53;8.40;99.90
47521;DHT22;32291;52.010;4.446;2024-03-17T06:42:56;8.40;99.90
47521;DHT22;32291;52.010;4.446;2024-03-17T06:43:59;8.50;99.90
47521;DHT22;32291;52.010;4.446;2024-03-17T06:45:01;8.50;99.90
47521;DHT22;32291;52.010;4.446;2024-03-17T06:46:05;8.60;99.90
47521;DHT22;32291;52.010;4.446;2024-03-17T06:47:09;8.60;99.90
47521;DHT22;32291;52.010;4.446;2024-03-17T06:48:15;8.60;99.90
47521;DHT22;32291;52.010;4.446;2024-03-17T06:49:25;8.50;99.90
47521;DHT22;32291;52.010;4.446;2024-03-17T06:50:28;8.60;99.90
47521;DHT22;32291;52.010;4.446;2024-03-17T06:51:31;8.70;99.90
47521;DHT22;32291;52.010;4.446;2024-03-17T06:52:38;8.70;99.90
47521;DHT22;32291;52.010;4.446;2024-03-17T06:53:41;8.70;99.90
47521;DHT22;32291;52.010;4.446;2024-03-17T06:54:47;8.70;99.90
47521;DHT22;32291;52.010;4.446;2024-03-17T06:55:59;8.80;99.90
47521;DHT22;32291;52.010;4.446;2024-03-17T06:57:02;8.80;99.90
47521;DHT22;32291;52.010;4.446;2024-03-17T06:58:10;8.90;99.90
47521;DHT22;32291;52.010;4.446;2024-03-17T06:59:15;9.00;99.90
47521;DHT22;32291;52.010;4.446;2024-03-17T07:00:18;9.00;99.90
47521;DHT22;32291;52.010;4.446;2024-03-17T07:01:27;9.00;99.90